Dover Air Force Base
KDOV : now visible

Airfield :











YOU CAN JOIN US ON...

 
LOGIN :

Register | Disclaimer

   EN    FR    IT 

 









Legend :    VFR   Marginal VFR   IFR   Intensive IFR   Very Intensive IFR
Visi :
Ceiling :
>= 8 km
>= 3000ft
5 to 8 km
1000 to 3000 ft
1500m to 5 km
500 to 1000 ft
800 to 1500m
200 to 500 ft
< 800m
< 200 ft
Symbols :   Thunderstorms  Fog  Heavy snow  Heavy precipitations  Wind > 20 kt






- Airport Elevation : 24 ft


KDOV - Dover Air Force Base

CURRENT METAR :
  • 120256Z AUTO 29010KT 10SM CLR 01/M09 A3051 RMK AO2 SLP335 T00081092 52026 $

EXPIRED METARs :
  • 120156Z AUTO 28009KT 10SM CLR 01/M09 A3048 RMK AO2 SLP325 T00121092 $
  • 120056Z AUTO 29010KT 10SM CLR 02/M08 A3045 RMK AO2 SLP315 T00151083 $

TAF TAF KDOV
Valid from the 12 at 00:00 until the 13 at 06:00 UTC


120000Z 1200/1306 28006KT 9999 SKC QNH3042INS
BECMG 1212/1213 36006KT 9999 SKC QNH3069INS
BECMG 1216/1217 10006KT 9999 SKC QNH3051INS TX02/1218Z TNM03/1211Z



MET'MAP, your aeronautical weather chart ! - Copyright ORBIFLY December 2007 - Disclaimer

ORBIFLY MET'MAP TEAM :

Programming & Development : Alexandra Zaïnal
Concept & original design : Baudouin d'Aumeries
Assistance for programming : Marc-Olivier Méhu
Technical & hardware support : Manuel Goepfert

Contact : metmap@orbifly.com




SOURCES & CREDITS :

   NOAA       Earth
Advisory